createdAt,value
2023-04-17T00:01:09.105Z,32.67
2023-04-17T00:03:35.710Z,31.27
2023-04-17T00:06:02.523Z,30.23
2023-04-17T00:08:29.197Z,33.05
2023-04-17T00:11:06.400Z,33.22
2023-04-17T00:13:34.003Z,33.55
2023-04-17T00:16:00.654Z,34.58
2023-04-17T00:18:27.108Z,34.65
2023-04-17T00:20:53.632Z,34.90
2023-04-17T00:23:20.256Z,37.53
2023-04-17T00:25:46.712Z,34.22
2023-04-17T00:28:13.147Z,34.58
2023-04-17T00:30:39.582Z,34.72
2023-04-17T00:33:06.080Z,34.50
2023-04-17T00:35:32.509Z,35.33
2023-04-17T00:37:58.973Z,36.40
2023-04-17T00:40:25.436Z,36.13
2023-04-17T00:42:56.025Z,36.08
2023-04-17T00:45:22.477Z,33.30
2023-04-17T00:47:49.966Z,34.22
2023-04-17T00:50:16.658Z,33.92
2023-04-17T00:52:44.992Z,33.13
2023-04-17T00:55:12.508Z,32.78
2023-04-17T00:57:39.376Z,31.88
2023-04-17T01:00:08.468Z,33.60
2023-04-17T01:02:35.287Z,33.40
2023-04-17T01:05:02.604Z,33.65
2023-04-17T01:07:30.807Z,34.60
2023-04-17T01:09:57.330Z,32.35
2023-04-17T01:12:25.231Z,32.65
2023-04-17T01:14:55.797Z,33.35
2023-04-17T01:17:23.268Z,32.30
2023-04-17T01:19:50.008Z,31.52
2023-04-17T01:22:16.638Z,33.67
2023-04-17T01:24:43.626Z,32.45
2023-04-17T01:27:13.563Z,34.60
2023-04-17T01:29:41.339Z,34.22
2023-04-17T01:32:08.327Z,34.20
2023-04-17T01:34:37.208Z,33.03
2023-04-17T01:37:03.931Z,32.80
2023-04-17T01:39:30.619Z,33.75
2023-04-17T01:41:57.332Z,35.67
2023-04-17T01:44:23.880Z,34.58
2023-04-17T01:46:51.176Z,35.25
2023-04-17T01:49:17.649Z,33.72
2023-04-17T01:51:44.210Z,35.50
2023-04-17T01:54:10.824Z,32.40
2023-04-17T01:56:37.309Z,34.20
2023-04-17T01:59:03.775Z,34.95
2023-04-17T02:01:31.180Z,37.67
2023-04-17T02:03:57.983Z,35.53
2023-04-17T02:06:25.505Z,35.65
2023-04-17T02:08:51.911Z,37.55
2023-04-17T02:11:18.488Z,37.70
2023-04-17T02:13:45.085Z,36.00
2023-04-17T02:16:12.627Z,36.38
2023-04-17T02:18:40.684Z,37.55
2023-04-17T02:21:07.270Z,35.30
2023-04-17T02:23:33.775Z,35.55
2023-04-17T02:26:00.432Z,36.20
2023-04-17T02:28:27.371Z,37.15
2023-04-17T02:30:53.955Z,34.53
2023-04-17T02:33:21.351Z,33.88
2023-04-17T02:35:47.929Z,36.25
2023-04-17T02:38:14.571Z,37.75
2023-04-17T02:40:41.192Z,37.65
2023-04-17T02:43:07.658Z,37.20
2023-04-17T02:45:34.101Z,37.45
2023-04-17T02:48:01.152Z,38.58
2023-04-17T02:50:27.668Z,37.85
2023-04-17T02:52:54.660Z,36.28
2023-04-17T02:55:21.268Z,38.95
2023-04-17T02:57:47.767Z,38.92
2023-04-17T03:00:15.075Z,37.90
2023-04-17T03:02:42.138Z,37.92
2023-04-17T03:05:09.170Z,37.72
2023-04-17T03:07:35.757Z,41.10
2023-04-17T03:10:03.293Z,39.47
2023-04-17T03:12:29.783Z,40.65
2023-04-17T03:14:56.276Z,42.15
2023-04-17T03:17:22.833Z,40.90
2023-04-17T03:19:49.335Z,41.58
2023-04-17T03:22:16.046Z,41.20
2023-04-17T03:24:42.571Z,40.97
2023-04-17T03:27:09.111Z,42.47
2023-04-17T03:29:35.651Z,42.17
2023-04-17T03:32:02.214Z,40.67
2023-04-17T03:34:29.618Z,42.47
2023-04-17T03:36:56.026Z,42.35
2023-04-17T03:39:22.474Z,44.72
2023-04-17T03:41:48.949Z,44.83
2023-04-17T03:44:17.212Z,44.28
2023-04-17T03:46:43.641Z,46.05
2023-04-17T03:49:10.452Z,47.00
2023-04-17T03:51:37.154Z,48.83
2023-04-17T03:54:03.934Z,50.28
2023-04-17T03:56:30.573Z,49.78
2023-04-17T03:58:57.096Z,50.25
2023-04-17T04:01:23.608Z,53.53
2023-04-17T04:03:50.306Z,52.33
2023-04-17T04:06:20.156Z,52.38
2023-04-17T04:08:46.637Z,49.25
2023-04-17T04:11:13.873Z,50.58
2023-04-17T04:13:40.650Z,51.95
2023-04-17T04:16:07.772Z,52.03
2023-04-17T04:18:35.280Z,51.17
2023-04-17T04:21:02.003Z,49.78
2023-04-17T04:23:30.453Z,52.55
2023-04-17T04:25:57.895Z,49.70
2023-04-17T04:28:24.502Z,52.20
2023-04-17T04:30:53.612Z,52.55
2023-04-17T04:33:20.900Z,53.05
2023-04-17T04:35:48.471Z,51.08
2023-04-17T04:38:17.171Z,50.22
2023-04-17T04:40:50.058Z,49.38
2023-04-17T04:43:16.746Z,50.22
2023-04-17T04:45:43.349Z,49.22
2023-04-17T04:48:09.848Z,49.63
2023-04-17T04:50:36.422Z,51.40
2023-04-17T04:53:02.869Z,51.92
2023-04-17T04:55:30.820Z,54.50
2023-04-17T04:57:57.556Z,54.15
2023-04-17T05:00:24.819Z,52.15
2023-04-17T05:02:51.379Z,54.58
2023-04-17T05:05:17.910Z,52.35
2023-04-17T05:07:44.346Z,53.08
2023-04-17T05:10:10.841Z,51.65
2023-04-17T05:12:37.304Z,49.67
2023-04-17T05:15:04.025Z,51.40
2023-04-17T05:17:30.770Z,51.67
2023-04-17T05:19:57.296Z,51.00
2023-04-17T05:22:23.708Z,51.75
2023-04-17T05:24:50.185Z,50.42
2023-04-17T05:27:16.591Z,49.80
2023-04-17T05:29:43.163Z,51.47
2023-04-17T05:32:09.709Z,50.85
2023-04-17T05:34:36.325Z,51.65
2023-04-17T05:37:03.387Z,56.13
2023-04-17T05:39:29.915Z,53.08
2023-04-17T05:41:56.474Z,52.58
2023-04-17T05:44:22.951Z,52.90
2023-04-17T05:46:49.385Z,52.88
2023-04-17T05:49:16.001Z,54.30
2023-04-17T05:51:42.459Z,52.55
2023-04-17T05:54:08.930Z,55.05
2023-04-17T05:56:35.563Z,52.90
2023-04-17T05:59:02.014Z,54.70
2023-04-17T06:01:29.939Z,58.35
2023-04-17T06:03:57.195Z,52.83
2023-04-17T06:06:23.918Z,52.75
2023-04-17T06:08:52.465Z,51.65
2023-04-17T06:11:19.054Z,52.30
2023-04-17T06:13:46.028Z,50.45
2023-04-17T06:16:12.556Z,54.33
2023-04-17T06:18:40.049Z,52.05
2023-04-17T06:21:09.979Z,51.75
2023-04-17T06:23:36.393Z,51.67
2023-04-17T06:26:03.004Z,54.78
2023-04-17T06:28:29.459Z,52.75
2023-04-17T06:30:55.955Z,57.65
2023-04-17T06:33:24.523Z,56.35
2023-04-17T06:35:52.529Z,54.25
2023-04-17T06:38:18.960Z,50.20
2023-04-17T06:40:46.592Z,54.03
2023-04-17T06:43:15.371Z,48.38
2023-04-17T06:45:42.941Z,51.38
2023-04-17T06:48:09.459Z,49.40
2023-04-17T06:50:36.368Z,49.05
2023-04-17T06:53:02.836Z,46.47
2023-04-17T06:55:29.618Z,49.95
2023-04-17T06:57:56.060Z,46.22
2023-04-17T07:00:22.883Z,47.38
2023-04-17T07:02:49.412Z,46.40
2023-04-17T07:05:16.641Z,43.67
2023-04-17T07:07:43.107Z,44.55
2023-04-17T07:10:09.719Z,45.03
2023-04-17T07:12:36.237Z,40.97
2023-04-17T07:15:02.904Z,43.67
2023-04-17T07:17:29.374Z,42.80
2023-04-17T07:19:56.310Z,41.88
2023-04-17T07:22:23.377Z,44.72
2023-04-17T07:24:50.776Z,39.60
2023-04-17T07:27:17.416Z,41.45
2023-04-17T07:29:46.959Z,40.50
2023-04-17T07:32:14.736Z,40.15
2023-04-17T07:34:41.929Z,42.72
2023-04-17T07:37:08.440Z,37.35
2023-04-17T07:39:35.220Z,42.65
2023-04-17T07:42:06.291Z,42.33
2023-04-17T07:44:32.915Z,38.53
2023-04-17T07:46:59.559Z,38.30
2023-04-17T07:49:26.045Z,34.28
2023-04-17T07:51:52.684Z,36.65
2023-04-17T07:54:19.130Z,33.20
2023-04-17T07:56:49.385Z,36.83
2023-04-17T07:59:16.750Z,35.08
2023-04-17T08:01:43.612Z,34.13
2023-04-17T08:04:10.313Z,34.35
2023-04-17T08:06:36.969Z,35.55
2023-04-17T08:09:04.248Z,34.17
2023-04-17T08:11:30.783Z,32.47
2023-04-17T08:13:57.213Z,32.72
2023-04-17T08:16:23.752Z,33.25
2023-04-17T08:18:50.374Z,31.55
2023-04-17T08:21:16.791Z,28.27
2023-04-17T08:23:43.248Z,27.17
2023-04-17T08:26:09.779Z,27.17
2023-04-17T08:28:36.219Z,28.30
2023-04-17T08:31:03.124Z,27.08
2023-04-17T08:33:29.603Z,25.88
2023-04-17T08:35:56.137Z,27.20
2023-04-17T08:38:22.773Z,27.25
2023-04-17T08:40:53.516Z,27.83
2023-04-17T08:43:21.499Z,26.63
2023-04-17T08:45:53.662Z,26.30
2023-04-17T08:48:23.792Z,26.90
2023-04-17T08:50:52.439Z,29.02
2023-04-17T08:53:20.556Z,26.92
2023-04-17T08:55:47.945Z,26.98
2023-04-17T08:58:15.178Z,25.20
2023-04-17T09:00:45.409Z,25.95
2023-04-17T09:05:45.972Z,21.98
2023-04-17T09:08:20.571Z,20.85
2023-04-17T09:10:49.078Z,22.77
2023-04-17T09:13:17.978Z,24.10
2023-04-17T09:15:46.444Z,21.50
2023-04-17T09:18:26.116Z,23.00
2023-04-17T09:20:53.232Z,21.88
2023-04-17T09:23:20.666Z,21.20
2023-04-17T09:26:04.840Z,21.95
2023-04-17T09:28:35.337Z,20.67
2023-04-17T09:31:07.619Z,21.85
2023-04-17T09:33:34.193Z,19.73
2023-04-17T09:36:22.183Z,21.17
2023-04-17T09:38:49.917Z,21.65
2023-04-17T09:41:28.783Z,20.98
2023-04-17T09:44:01.753Z,19.15
2023-04-17T09:46:38.495Z,19.45
2023-04-17T09:49:22.089Z,19.98
2023-04-17T09:51:49.916Z,20.13
2023-04-17T09:54:17.440Z,19.52
2023-04-17T09:56:44.012Z,19.35
2023-04-17T09:59:10.995Z,18.92
2023-04-17T10:01:38.110Z,19.77
2023-04-17T10:04:05.609Z,17.10
2023-04-17T10:06:33.481Z,19.98
2023-04-17T10:09:00.507Z,17.42
2023-04-17T10:11:44.962Z,18.77
2023-04-17T10:14:25.909Z,17.52
2023-04-17T10:16:53.718Z,17.70
2023-04-17T10:19:34.083Z,18.08
2023-04-17T10:22:16.173Z,17.20
2023-04-17T10:24:43.090Z,17.73
2023-04-17T10:27:24.646Z,19.52
2023-04-17T10:29:54.895Z,20.13
2023-04-17T10:32:24.201Z,19.50
2023-04-17T10:34:51.892Z,20.73
2023-04-17T10:37:18.995Z,22.75
2023-04-17T10:40:02.122Z,20.75
2023-04-17T10:42:30.121Z,22.70
2023-04-17T10:45:01.743Z,21.65
2023-04-17T10:47:33.624Z,22.70
2023-04-17T10:50:03.360Z,22.70
2023-04-17T10:52:32.929Z,22.17
2023-04-17T10:55:17.116Z,20.23
2023-04-17T10:57:59.200Z,24.40
2023-04-17T11:00:52.509Z,24.13
2023-04-17T11:03:23.241Z,26.00
2023-04-17T11:05:49.970Z,24.10
2023-04-17T11:08:16.394Z,22.55
2023-04-17T11:10:43.033Z,22.10
2023-04-17T11:13:10.716Z,21.42
2023-04-17T11:15:37.314Z,21.58
2023-04-17T11:18:04.150Z,20.35
2023-04-17T11:20:32.639Z,21.52
2023-04-17T11:23:04.204Z,21.45
2023-04-17T11:25:33.740Z,22.05
2023-04-17T11:28:05.952Z,20.02
2023-04-17T11:30:40.491Z,18.35
2023-04-17T11:33:08.367Z,18.40
2023-04-17T11:35:36.800Z,17.58
2023-04-17T11:38:17.813Z,16.00
2023-04-17T11:40:45.763Z,17.40
2023-04-17T11:43:13.752Z,16.77
2023-04-17T11:45:43.114Z,17.33
2023-04-17T11:48:11.872Z,16.52
2023-04-17T11:50:40.244Z,17.80
2023-04-17T11:53:07.285Z,17.05
2023-04-17T11:55:35.119Z,17.17
2023-04-17T11:58:06.555Z,17.92
2023-04-17T12:00:33.968Z,17.50
2023-04-17T12:03:02.466Z,16.52
2023-04-17T12:05:31.003Z,16.40
2023-04-17T12:08:05.869Z,16.02
2023-04-17T12:10:43.714Z,15.43
2023-04-17T12:13:11.388Z,15.48
2023-04-17T12:15:40.928Z,15.60
2023-04-17T12:18:08.872Z,15.27
2023-04-17T12:20:36.493Z,15.80
2023-04-17T12:23:04.574Z,15.60
2023-04-17T12:25:33.130Z,16.35
2023-04-17T12:28:00.882Z,17.17
2023-04-17T12:30:27.919Z,18.17
2023-04-17T12:32:55.352Z,18.45
2023-04-17T12:35:23.113Z,17.67
2023-04-17T12:37:51.473Z,16.60
2023-04-17T12:40:19.490Z,17.10
2023-04-17T12:42:49.504Z,16.35
2023-04-17T12:45:17.220Z,16.38
2023-04-17T12:47:44.420Z,15.02
2023-04-17T12:50:12.054Z,15.30
2023-04-17T12:52:40.910Z,15.13
2023-04-17T12:55:08.672Z,15.07
2023-04-17T12:57:36.585Z,15.48
2023-04-17T13:00:09.168Z,15.93
2023-04-17T13:02:36.100Z,16.08
2023-04-17T13:05:02.934Z,16.38
2023-04-17T13:07:29.794Z,15.75
2023-04-17T13:09:56.878Z,15.75
2023-04-17T13:12:23.324Z,16.75
2023-04-17T13:14:49.923Z,15.52
2023-04-17T13:17:17.382Z,16.23
2023-04-17T13:19:44.466Z,15.73
2023-04-17T13:22:11.012Z,15.38
2023-04-17T13:24:37.797Z,15.88
2023-04-17T13:27:04.597Z,14.80
2023-04-17T13:29:31.320Z,15.30
2023-04-17T13:31:57.737Z,16.17
2023-04-17T13:34:24.203Z,15.90
2023-04-17T13:36:50.697Z,15.63
2023-04-17T13:39:17.236Z,15.35
2023-04-17T13:41:43.756Z,16.02
2023-04-17T13:44:10.382Z,15.98
2023-04-17T13:46:36.881Z,15.77
2023-04-17T13:49:03.899Z,15.75
2023-04-17T13:51:31.928Z,15.50
2023-04-17T13:54:01.657Z,15.25
2023-04-17T13:56:28.769Z,15.73
2023-04-17T13:58:55.828Z,15.52
2023-04-17T14:01:22.370Z,15.32
2023-04-17T14:03:49.046Z,15.40
2023-04-17T14:06:17.779Z,15.48
2023-04-17T14:08:45.632Z,15.05
2023-04-17T14:11:12.903Z,13.48
2023-04-17T14:13:39.416Z,13.57
2023-04-17T14:16:06.390Z,14.38
2023-04-17T14:18:32.902Z,13.55
2023-04-17T14:20:59.331Z,13.13
2023-04-17T14:23:25.821Z,13.32
2023-04-17T14:25:52.324Z,13.63
2023-04-17T14:28:19.010Z,13.50
2023-04-17T14:30:45.698Z,13.73
2023-04-17T14:33:12.135Z,13.38
2023-04-17T14:35:40.121Z,13.90
2023-04-17T14:38:07.029Z,13.27
2023-04-17T14:40:33.878Z,13.43
2023-04-17T14:43:00.341Z,13.40
2023-04-17T14:45:26.834Z,14.32
2023-04-17T14:47:53.263Z,14.18
2023-04-17T14:50:20.301Z,14.73
2023-04-17T14:52:46.810Z,16.15
2023-04-17T14:55:13.506Z,14.45
2023-04-17T14:57:40.113Z,15.70
2023-04-17T15:00:08.309Z,15.45
2023-04-17T15:02:38.854Z,16.08
2023-04-17T15:05:06.649Z,15.00
2023-04-17T15:07:33.139Z,14.43
2023-04-17T15:09:59.779Z,15.68
2023-04-17T15:12:26.438Z,14.90
2023-04-17T15:14:53.112Z,14.57
2023-04-17T15:17:19.878Z,14.82
2023-04-17T15:19:46.426Z,15.30
2023-04-17T15:22:12.964Z,15.52
2023-04-17T15:24:39.425Z,16.00
2023-04-17T15:27:06.234Z,15.13
2023-04-17T15:29:32.776Z,15.65
2023-04-17T15:32:00.717Z,15.27
2023-04-17T15:34:27.207Z,15.52
2023-04-17T15:36:53.710Z,14.90
2023-04-17T15:39:20.195Z,16.02
2023-04-17T15:41:46.772Z,16.33
2023-04-17T15:44:13.191Z,15.13
2023-04-17T15:46:39.727Z,15.38
2023-04-17T15:49:09.169Z,15.98
2023-04-17T15:51:35.740Z,15.95
2023-04-17T15:54:02.137Z,15.63
2023-04-17T15:56:31.909Z,15.05
2023-04-17T15:58:58.407Z,14.85
2023-04-17T16:01:25.121Z,16.00
2023-04-17T16:03:52.129Z,15.82
2023-04-17T16:06:20.370Z,15.73
2023-04-17T16:08:47.247Z,15.25
2023-04-17T16:11:14.872Z,15.63
2023-04-17T16:13:41.319Z,15.40
2023-04-17T16:16:08.150Z,15.18
2023-04-17T16:18:34.581Z,15.45
2023-04-17T16:21:01.044Z,15.73
2023-04-17T16:23:27.576Z,14.18
2023-04-17T16:25:55.195Z,15.50
2023-04-17T16:28:21.663Z,15.20
2023-04-17T16:30:49.039Z,15.57
2023-04-17T16:33:15.624Z,16.35
2023-04-17T16:35:42.821Z,15.00
2023-04-17T16:38:12.354Z,15.95
2023-04-17T16:40:39.468Z,16.27
2023-04-17T16:43:06.259Z,15.32
2023-04-17T16:45:32.787Z,15.88
2023-04-17T16:47:59.414Z,16.30
2023-04-17T16:50:25.922Z,16.88
2023-04-17T16:52:52.455Z,15.43
2023-04-17T16:55:19.085Z,16.73
2023-04-17T16:57:47.648Z,16.45
2023-04-17T17:00:14.681Z,16.20
2023-04-17T17:02:41.317Z,16.48
2023-04-17T17:05:08.611Z,16.45
2023-04-17T17:07:35.154Z,16.02
2023-04-17T17:10:01.679Z,15.68
2023-04-17T17:12:28.130Z,16.40
2023-04-17T17:14:54.718Z,15.70
2023-04-17T17:17:21.180Z,16.77
2023-04-17T17:19:47.660Z,16.88
2023-04-17T17:22:14.070Z,16.38
2023-04-17T17:24:40.522Z,15.68
2023-04-17T17:27:06.950Z,17.27
2023-04-17T17:29:33.513Z,16.10
2023-04-17T17:32:02.194Z,16.80
2023-04-17T17:34:28.681Z,16.45
2023-04-17T17:36:55.392Z,18.05
2023-04-17T17:39:22.194Z,16.95
2023-04-17T17:41:49.026Z,16.20
2023-04-17T17:44:15.659Z,16.85
2023-04-17T17:46:42.265Z,17.42
2023-04-17T17:49:08.754Z,17.95
2023-04-17T17:51:35.420Z,16.95
2023-04-17T17:54:01.912Z,16.92
2023-04-17T17:56:28.476Z,17.80
2023-04-17T17:58:55.031Z,17.65
2023-04-17T18:01:24.524Z,17.30
2023-04-17T18:03:51.668Z,17.52
2023-04-17T18:06:18.592Z,17.33
2023-04-17T18:08:45.106Z,17.48
2023-04-17T18:11:13.624Z,17.65
2023-04-17T18:13:40.055Z,18.50
2023-04-17T18:16:06.961Z,16.95
2023-04-17T18:18:33.448Z,17.80
2023-04-17T18:20:59.871Z,18.13
2023-04-17T18:23:26.275Z,17.83
2023-04-17T18:25:59.683Z,18.13
2023-04-17T18:28:26.613Z,19.88
2023-04-17T18:30:53.308Z,17.65
2023-04-17T18:33:20.360Z,18.35
2023-04-17T18:35:46.982Z,17.42
2023-04-17T18:38:13.467Z,17.58
2023-04-17T18:40:39.897Z,17.95
2023-04-17T18:43:06.590Z,17.90
2023-04-17T18:45:33.109Z,18.63
2023-04-17T18:47:59.598Z,17.27
2023-04-17T18:50:26.971Z,17.65
2023-04-17T18:52:53.456Z,17.67
2023-04-17T18:55:20.148Z,18.63
2023-04-17T18:57:46.618Z,17.90
2023-04-17T19:00:13.405Z,17.98
2023-04-17T19:02:40.647Z,17.42
2023-04-17T19:05:07.787Z,18.95
2023-04-17T19:07:34.591Z,17.95
2023-04-17T19:10:01.171Z,17.30
2023-04-17T19:12:27.711Z,18.67
2023-04-17T19:14:57.031Z,17.45
2023-04-17T19:17:25.322Z,17.37
2023-04-17T19:19:51.847Z,18.92
2023-04-17T19:22:18.541Z,17.88
2023-04-17T19:24:50.236Z,18.38
2023-04-17T19:27:17.008Z,19.33
2023-04-17T19:29:43.575Z,18.52
2023-04-17T19:32:10.703Z,18.75
2023-04-17T19:34:37.161Z,17.45
2023-04-17T19:37:04.043Z,18.42
2023-04-17T19:39:31.003Z,19.92
2023-04-17T19:41:57.953Z,19.40
2023-04-17T19:44:25.951Z,19.00
2023-04-17T19:46:53.923Z,18.83
2023-04-17T19:49:20.335Z,19.50
2023-04-17T19:51:46.885Z,19.40
2023-04-17T19:54:13.418Z,19.00
2023-04-17T19:56:39.940Z,19.48
2023-04-17T19:59:06.637Z,19.33
2023-04-17T20:01:33.377Z,20.83
2023-04-17T20:04:00.188Z,18.13
2023-04-17T20:06:26.973Z,18.80
2023-04-17T20:08:53.780Z,19.13
2023-04-17T20:11:20.449Z,19.40
2023-04-17T20:13:46.873Z,20.48
2023-04-17T20:16:13.374Z,19.33
2023-04-17T20:18:41.652Z,20.05
2023-04-17T20:21:08.072Z,21.33
2023-04-17T20:23:34.543Z,20.00
2023-04-17T20:26:01.066Z,19.88
2023-04-17T20:28:28.985Z,20.48
2023-04-17T20:30:55.747Z,20.75
2023-04-17T20:33:22.591Z,20.27
2023-04-17T20:35:49.312Z,21.80
2023-04-17T20:38:15.809Z,20.60
2023-04-17T20:40:42.426Z,21.20
2023-04-17T20:43:08.902Z,21.63
2023-04-17T20:45:35.768Z,20.70
2023-04-17T20:48:02.288Z,20.35
2023-04-17T20:50:28.751Z,21.25
2023-04-17T20:52:55.209Z,21.58
2023-04-17T20:55:21.850Z,21.77
2023-04-17T20:57:48.373Z,22.52
2023-04-17T21:00:15.910Z,21.75
2023-04-17T21:02:43.475Z,21.17
2023-04-17T21:05:10.149Z,21.48
2023-04-17T21:07:37.854Z,22.70
2023-04-17T21:10:05.159Z,21.05
2023-04-17T21:12:33.089Z,21.98
2023-04-17T21:14:59.714Z,21.85
2023-04-17T21:17:26.316Z,21.67
2023-04-17T21:19:55.630Z,22.60
2023-04-17T21:22:22.115Z,22.23
2023-04-17T21:24:48.588Z,22.60
2023-04-17T21:27:15.496Z,22.85
2023-04-17T21:29:42.081Z,23.45
2023-04-17T21:32:08.537Z,23.52
2023-04-17T21:34:35.249Z,22.50
2023-04-17T21:37:03.523Z,23.67
2023-04-17T21:39:32.834Z,22.88
2023-04-17T21:42:00.022Z,23.77
2023-04-17T21:44:26.528Z,24.42
2023-04-17T21:46:53.168Z,24.08
2023-04-17T21:49:20.708Z,23.08
2023-04-17T21:51:47.140Z,21.30
2023-04-17T21:54:13.891Z,23.17
2023-04-17T21:56:40.612Z,22.83
2023-04-17T21:59:07.117Z,23.60
2023-04-17T22:01:33.694Z,24.13
2023-04-17T22:04:00.356Z,24.90
2023-04-17T22:06:27.019Z,23.85
2023-04-17T22:08:53.465Z,23.23
2023-04-17T22:11:20.423Z,25.23
2023-04-17T22:13:47.161Z,25.38
2023-04-17T22:16:13.658Z,22.85
2023-04-17T22:18:40.216Z,23.33
2023-04-17T22:21:07.013Z,23.92
2023-04-17T22:23:33.545Z,23.38
2023-04-17T22:26:00.074Z,23.48
2023-04-17T22:28:30.125Z,24.25
2023-04-17T22:30:57.681Z,25.08
2023-04-17T22:33:24.440Z,24.35
2023-04-17T22:35:50.845Z,25.60
2023-04-17T22:38:18.567Z,25.15
2023-04-17T22:40:45.053Z,23.90
2023-04-17T22:43:11.476Z,22.98
2023-04-17T22:45:37.972Z,22.55
2023-04-17T22:48:04.596Z,23.45
2023-04-17T22:50:32.418Z,22.60
2023-04-17T22:52:58.861Z,22.88
2023-04-17T22:55:25.416Z,23.73
2023-04-17T22:57:52.436Z,23.25
2023-04-17T23:00:20.220Z,24.30
2023-04-17T23:02:47.365Z,25.27
2023-04-17T23:05:14.127Z,23.88
2023-04-17T23:07:41.085Z,25.35
2023-04-17T23:10:07.893Z,25.45
2023-04-17T23:12:34.441Z,24.05
2023-04-17T23:15:01.193Z,25.30
2023-04-17T23:17:28.179Z,25.30
2023-04-17T23:19:54.655Z,25.30
2023-04-17T23:22:21.207Z,27.23
2023-04-17T23:24:47.637Z,26.63
2023-04-17T23:27:14.038Z,26.98
2023-04-17T23:29:40.403Z,28.05
2023-04-17T23:32:07.734Z,27.20
2023-04-17T23:34:34.429Z,27.00
2023-04-17T23:37:02.636Z,27.38
2023-04-17T23:39:29.284Z,26.42
2023-04-17T23:41:55.829Z,27.80
2023-04-17T23:44:22.306Z,27.85
2023-04-17T23:46:48.944Z,28.52
2023-04-17T23:49:15.447Z,29.10
2023-04-17T23:51:41.888Z,30.30
2023-04-17T23:54:08.315Z,30.63
2023-04-17T23:56:35.021Z,29.05
2023-04-17T23:59:01.582Z,30.13
